Time;durP1;ratioP1;P1;durP2;ratioP2;P2;SDS_P1;SDS_P2;PMS_P1;PMS_P2;Temp;Humidity;BMP_temperature;BMP_pressure;BME280_temperature;BME280_humidity;BME280_pressure;Samples;Min_cycle;Max_cycle;Signal;HPM_P1;HPM_P2
2022/07/09 00:00:29;;;;;;;3.25;2.03;;;;;;;21.78;51.71;101510.47;5014226;28;20141;-47
2022/07/09 00:02:55;;;;;;;4.90;1.73;;;;;;;21.74;53.02;101498.44;5024115;28;20423;-46
2022/07/09 00:05:21;;;;;;;6.68;2.30;;;;;;;22.02;52.97;101504.56;5011891;28;20029;-46
2022/07/09 00:07:47;;;;;;;5.15;1.95;;;;;;;21.81;52.73;101520.81;5011942;28;20022;-49
2022/07/09 00:10:13;;;;;;;5.10;1.80;;;;;;;21.77;52.56;101508.00;5011909;28;20030;-48
2022/07/09 00:12:40;;;;;;;5.38;1.50;;;;;;;21.83;53.16;101509.69;5032151;28;20042;-50
2022/07/09 00:15:07;;;;;;;3.53;1.75;;;;;;;21.94;51.52;101508.63;5046417;28;20029;-46
2022/07/09 00:17:33;;;;;;;5.00;1.80;;;;;;;21.70;52.21;101502.78;5032669;28;20528;-46
2022/07/09 00:20:01;;;;;;;4.90;1.60;;;;;;;21.64;52.91;101500.28;5032034;28;20059;-46
2022/07/09 00:22:28;;;;;;;6.30;2.08;;;;;;;21.81;52.86;101485.38;5017000;28;20081;-47
2022/07/09 00:24:54;;;;;;;3.83;1.73;;;;;;;21.87;52.11;101495.22;5011817;28;20109;-45
2022/07/09 00:27:20;;;;;;;6.53;1.95;;;;;;;21.71;52.72;101492.69;5012410;28;20382;-46
2022/07/09 00:29:47;;;;;;;4.45;1.67;;;;;;;21.70;52.29;101491.88;5012583;28;20068;-44
2022/07/09 00:32:13;;;;;;;7.03;2.10;;;;;;;21.66;52.78;101493.50;5016181;28;20025;-44
2022/07/09 00:34:39;;;;;;;7.43;2.22;;;;;;;21.63;53.05;101488.56;5031518;28;20057;-43
2022/07/09 00:37:06;;;;;;;6.60;2.70;;;;;;;21.46;52.94;101488.75;5031853;28;20021;-46
2022/07/09 00:39:35;;;;;;;2.67;1.65;;;;;;;21.59;52.58;101495.63;5031705;28;20032;-44
2022/07/09 00:42:11;;;;;;;5.38;1.90;;;;;;;21.51;53.07;101491.50;5032132;28;20120;-45
2022/07/09 00:44:38;;;;;;;4.95;1.73;;;;;;;21.46;52.87;101488.75;5050708;28;20104;-46
2022/07/09 00:47:07;;;;;;;5.43;2.35;;;;;;;21.46;52.80;101496.09;5021435;28;20033;-46
2022/07/09 00:49:38;;;;;;;6.95;1.98;;;;;;;21.64;52.73;101501.09;5024604;28;20017;-47
2022/07/09 00:52:06;;;;;;;6.90;2.17;;;;;;;21.21;52.79;101503.00;5027251;28;20459;-46
2022/07/09 00:54:34;;;;;;;6.25;1.70;;;;;;;21.25;53.60;101500.56;4993907;28;20022;-47
2022/07/09 00:57:01;;;;;;;5.07;1.80;;;;;;;21.26;53.84;101503.00;5031472;28;20501;-45
2022/07/09 00:59:28;;;;;;;7.60;2.15;;;;;;;21.28;54.31;101503.59;5044120;28;20068;-47
2022/07/09 01:01:54;;;;;;;5.22;1.90;;;;;;;21.47;54.04;101508.63;5051907;28;20532;-46
2022/07/09 01:04:21;;;;;;;5.55;1.98;;;;;;;21.04;54.33;101513.19;5041276;28;20018;-48
2022/07/09 01:06:47;;;;;;;7.18;2.42;;;;;;;21.16;54.55;101513.84;5020551;28;20056;-47
2022/07/09 01:09:13;;;;;;;5.30;2.30;;;;;;;21.10;54.54;101509.44;5031748;28;20018;-49
2022/07/09 01:11:40;;;;;;;9.10;2.03;;;;;;;21.12;54.08;101515.44;5031328;28;20049;-45
2022/07/09 01:14:06;;;;;;;7.18;2.22;;;;;;;20.83;54.71;101512.19;5031791;28;20094;-44
2022/07/09 01:16:34;;;;;;;7.40;2.47;;;;;;;20.61;55.84;101516.88;5031440;28;20037;-47
2022/07/09 01:19:01;;;;;;;5.63;1.98;;;;;;;20.98;55.21;101508.78;5032296;28;20105;-45
2022/07/09 01:21:27;;;;;;;4.55;2.28;;;;;;;20.76;55.44;101515.09;5035563;28;20029;-46
2022/07/09 01:23:54;;;;;;;9.07;4.13;;;;;;;20.61;55.76;101512.25;5040209;28;20029;-47
2022/07/09 01:26:20;;;;;;;10.93;5.80;;;;;;;20.76;55.17;101519.72;5035255;28;20355;-45
2022/07/09 01:28:47;;;;;;;9.32;4.13;;;;;;;20.47;56.04;101513.72;5033437;28;20068;-48
2022/07/09 01:31:14;;;;;;;8.65;3.83;;;;;;;20.31;56.59;101509.97;5035100;28;20033;-48
2022/07/09 01:33:41;;;;;;;6.55;2.60;;;;;;;20.13;57.27;101511.13;5037090;28;20021;-44
2022/07/09 01:36:10;;;;;;;6.25;2.05;;;;;;;20.09;56.85;101503.75;5034263;28;20068;-45
2022/07/09 01:38:37;;;;;;;10.55;2.35;;;;;;;20.11;56.91;101507.03;5034906;28;20021;-46
2022/07/09 01:41:04;;;;;;;6.15;2.25;;;;;;;20.05;56.96;101508.88;5014036;28;20033;-47
2022/07/09 01:43:33;;;;;;;7.57;2.22;;;;;;;20.02;57.45;101504.75;5047365;28;20501;-45
2022/07/09 01:46:00;;;;;;;6.25;2.53;;;;;;;19.90;57.72;101508.69;5054096;28;20033;-47
2022/07/09 01:48:34;;;;;;;5.10;2.05;;;;;;;20.09;56.67;101507.28;5037415;28;20442;-45
2022/07/09 01:51:00;;;;;;;5.78;1.80;;;;;;;20.03;56.70;101516.44;5054741;28;20032;-45
2022/07/09 01:53:26;;;;;;;7.68;2.30;;;;;;;19.99;56.81;101516.16;5018076;28;20061;-47
2022/07/09 01:55:53;;;;;;;8.00;3.20;;;;;;;20.15;56.41;101508.97;5015039;28;20021;-48
2022/07/09 01:58:19;;;;;;;5.57;1.95;;;;;;;20.16;56.39;101516.09;5024724;28;20036;-48
2022/07/09 02:00:45;;;;;;;5.35;1.80;;;;;;;20.26;56.27;101518.06;5048186;28;20032;-45
2022/07/09 02:03:12;;;;;;;5.22;2.00;;;;;;;20.34;55.86;101527.69;5043024;28;20025;-45
2022/07/09 02:05:38;;;;;;;5.18;1.75;;;;;;;20.41;55.71;101515.53;5054152;28;20088;-48
2022/07/09 02:08:04;;;;;;;6.35;1.90;;;;;;;20.41;55.68;101525.59;5039108;28;20117;-45
2022/07/09 02:10:30;;;;;;;8.20;2.30;;;;;;;20.16;55.42;101532.38;5034483;28;20025;-48
2022/07/09 02:12:57;;;;;;;5.55;1.77;;;;;;;20.26;55.40;101527.06;5034520;28;20390;-48
2022/07/09 02:15:23;;;;;;;6.43;1.77;;;;;;;20.44;54.41;101535.97;5034346;28;20049;-46
2022/07/09 02:17:49;;;;;;;5.22;1.95;;;;;;;20.71;53.66;101534.13;5034553;28;20052;-45
2022/07/09 02:20:15;;;;;;;5.63;1.92;;;;;;;20.94;52.70;101538.44;5034547;28;20033;-45
2022/07/09 02:22:42;;;;;;;4.60;1.85;;;;;;;21.31;51.84;101538.47;5034372;28;20029;-48
2022/07/09 02:25:08;;;;;;;4.57;1.75;;;;;;;21.46;51.54;101542.41;5033133;28;20482;-45
2022/07/09 02:27:37;;;;;;;7.32;1.98;;;;;;;21.55;51.26;101540.84;5034371;28;20041;-45
2022/07/09 02:30:04;;;;;;;6.63;1.80;;;;;;;21.58;50.80;101537.59;5034268;28;20579;-46
2022/07/09 02:32:30;;;;;;;4.28;1.90;;;;;;;21.32;51.55;101544.75;5041131;28;20021;-45
2022/07/09 02:34:56;;;;;;;6.85;2.00;;;;;;;21.37;51.36;101549.41;5039505;28;20068;-47
2022/07/09 02:37:22;;;;;;;7.05;1.80;;;;;;;21.13;52.07;101552.47;5014305;28;20241;-48
2022/07/09 02:39:49;;;;;;;5.32;1.75;;;;;;;21.25;51.72;101555.81;5014001;28;20030;-46
2022/07/09 02:42:15;;;;;;;5.93;1.63;;;;;;;21.12;51.64;101556.28;5042251;28;20427;-49
2022/07/09 02:44:43;;;;;;;4.43;1.80;;;;;;;20.99;52.28;101552.09;5053364;28;20025;-47
2022/07/09 02:47:09;;;;;;;2.78;1.88;;;;;;;20.81;52.80;101560.59;5035138;28;20040;-46
2022/07/09 02:49:35;;;;;;;4.95;2.22;;;;;;;20.94;52.44;101559.38;5033275;28;20386;-45
2022/07/09 02:52:02;;;;;;;4.32;1.70;;;;;;;20.77;52.76;101559.50;5033582;28;20108;-49
2022/07/09 02:54:28;;;;;;;5.30;1.90;;;;;;;20.64;53.75;101563.41;5014560;28;20026;-48
2022/07/09 02:56:55;;;;;;;3.08;1.60;;;;;;;20.49;53.51;101568.69;5017988;28;20113;-45
2022/07/09 02:59:21;;;;;;;4.68;1.50;;;;;;;20.39;54.05;101571.25;5053410;28;20024;-47
2022/07/09 03:01:47;;;;;;;4.95;1.65;;;;;;;20.28;54.11;101562.16;5050132;28;20030;-47
2022/07/09 03:04:13;;;;;;;7.72;2.30;;;;;;;19.80;55.35;101566.41;5032878;28;20501;-45
2022/07/09 03:06:39;;;;;;;6.45;1.95;;;;;;;19.62;56.12;101569.41;5033401;28;20021;-47
2022/07/09 03:09:06;;;;;;;6.78;2.22;;;;;;;19.40;56.97;101572.00;5033479;28;20083;-47
2022/07/09 03:11:32;;;;;;;5.10;2.13;;;;;;;19.05;58.07;101570.34;5035116;28;20920;-46
2022/07/09 03:13:58;;;;;;;6.55;2.20;;;;;;;18.79;58.82;101568.25;5052854;28;20114;-44
2022/07/09 03:16:25;;;;;;;5.22;2.08;;;;;;;18.58;59.32;101572.41;5053286;28;20035;-46
2022/07/09 03:18:51;;;;;;;4.18;1.80;;;;;;;18.39;60.17;101574.50;5041900;28;20069;-46
2022/07/09 03:21:17;;;;;;;5.25;1.90;;;;;;;18.17;60.86;101575.13;5033326;28;20029;-47
2022/07/09 03:23:43;;;;;;;5.25;2.63;;;;;;;18.02;61.46;101563.13;5032412;28;20025;-48
2022/07/09 03:26:10;;;;;;;5.32;1.90;;;;;;;17.78;61.79;101570.47;5033086;28;20500;-45
2022/07/09 03:28:36;;;;;;;4.45;1.95;;;;;;;17.72;61.88;101571.38;5032993;28;20038;-47
2022/07/09 03:31:02;;;;;;;6.15;2.13;;;;;;;17.55;62.59;101579.38;5013296;28;20030;-47
2022/07/09 03:33:29;;;;;;;3.60;1.60;;;;;;;17.50;63.00;101573.84;5013227;28;20359;-47
2022/07/09 03:35:55;;;;;;;6.32;2.10;;;;;;;17.46;63.26;101581.59;5012686;28;20041;-45
2022/07/09 03:38:22;;;;;;;4.80;2.03;;;;;;;17.35;63.45;101572.38;5013082;28;20159;-45
2022/07/09 03:40:49;;;;;;;5.70;1.90;;;;;;;17.21;64.15;101572.81;5012965;28;20440;-46
2022/07/09 03:43:15;;;;;;;5.72;2.00;;;;;;;17.21;64.57;101570.13;5032012;28;20025;-48
2022/07/09 03:45:41;;;;;;;9.57;2.08;;;;;;;17.04;64.91;101580.78;5032735;28;20052;-47
2022/07/09 03:48:08;;;;;;;4.75;2.22;;;;;;;16.67;66.24;101580.03;5032629;28;20092;-44
2022/07/09 03:50:34;;;;;;;4.97;2.10;;;;;;;16.78;65.91;101582.00;5032627;28;20018;-47
2022/07/09 03:53:00;;;;;;;5.70;2.22;;;;;;;16.70;66.46;101587.69;5032525;28;20052;-48
2022/07/09 03:55:26;;;;;;;9.10;2.65;;;;;;;16.67;66.43;101580.88;5032547;28;20048;-45
2022/07/09 03:57:52;;;;;;;7.53;2.80;;;;;;;16.54;67.16;101589.94;5032338;28;20030;-44
2022/07/09 04:00:19;;;;;;;5.80;2.20;;;;;;;16.60;67.40;101586.38;5032466;28;20021;-46
2022/07/09 04:02:45;;;;;;;6.57;2.28;;;;;;;16.37;68.29;101586.22;5032079;28;20447;-43
2022/07/09 04:05:11;;;;;;;4.50;2.17;;;;;;;16.48;68.04;101592.75;5032068;28;20025;-43
2022/07/09 04:07:39;;;;;;;7.30;2.45;;;;;;;16.41;68.36;101592.00;5032051;28;20490;-45
2022/07/09 04:10:06;;;;;;;4.88;1.88;;;;;;;16.29;69.24;101594.63;5035734;28;20112;-46
2022/07/09 04:12:32;;;;;;;3.83;2.25;;;;;;;16.24;69.42;101597.19;5014230;28;20128;-47
2022/07/09 04:14:59;;;;;;;5.40;2.35;;;;;;;16.20;69.89;101601.38;5030916;28;20029;-46
2022/07/09 04:17:25;;;;;;;4.38;2.10;;;;;;;16.06;70.43;101601.53;5030975;28;20040;-44
2022/07/09 04:19:51;;;;;;;6.85;2.47;;;;;;;15.97;71.00;101619.06;5032369;28;20378;-44
2022/07/09 04:22:17;;;;;;;7.13;1.95;;;;;;;16.01;70.64;101611.34;5030985;28;20040;-45
2022/07/09 04:24:43;;;;;;;5.82;2.42;;;;;;;16.06;70.50;101615.03;5030363;28;20029;-45
2022/07/09 04:27:10;;;;;;;5.28;1.98;;;;;;;16.02;70.47;101615.69;5029824;28;20112;-47
2022/07/09 04:29:36;;;;;;;7.22;2.22;;;;;;;15.99;70.50;101617.00;5023852;28;20013;-44
2022/07/09 04:32:02;;;;;;;5.53;1.92;;;;;;;15.78;71.49;101617.41;5031001;28;20036;-49
2022/07/09 04:34:28;;;;;;;5.50;1.70;;;;;;;15.76;71.38;101624.88;5031651;28;20021;-47
2022/07/09 04:36:55;;;;;;;6.57;2.30;;;;;;;15.70;71.97;101628.44;5044392;28;20041;-48
2022/07/09 04:39:24;;;;;;;4.00;2.00;;;;;;;15.59;72.31;101620.00;5051936;28;20040;-46
2022/07/09 04:41:50;;;;;;;6.22;2.00;;;;;;;15.55;72.45;101632.28;5051617;28;20481;-44
2022/07/09 04:44:17;;;;;;;4.75;2.08;;;;;;;15.48;72.74;101639.59;5051502;28;20497;-45
2022/07/09 04:46:44;;;;;;;5.53;2.08;;;;;;;15.40;73.17;101639.03;5033761;28;20033;-47
2022/07/09 04:49:10;;;;;;;3.70;2.25;;;;;;;15.37;73.42;101645.69;5024325;28;20026;-46
2022/07/09 04:51:37;;;;;;;4.68;2.00;;;;;;;15.37;73.53;101653.78;5012424;28;20033;-45
2022/07/09 04:54:03;;;;;;;4.05;2.10;;;;;;;15.32;73.53;101659.84;5016591;28;20033;-47
2022/07/09 04:56:30;;;;;;;5.57;2.00;;;;;;;15.21;74.04;101657.84;5031113;28;20122;-48
2022/07/09 04:58:56;;;;;;;5.15;2.03;;;;;;;15.00;74.77;101656.31;5025297;28;20030;-46
2022/07/09 05:01:23;;;;;;;8.20;1.85;;;;;;;15.06;74.79;101665.41;5000533;28;20380;-48
2022/07/09 05:03:50;;;;;;;4.18;2.08;;;;;;;15.06;74.92;101665.41;5026998;28;20018;-48
2022/07/09 05:06:17;;;;;;;6.60;1.95;;;;;;;14.99;74.87;101664.59;5038014;28;20025;-45
2022/07/09 05:08:44;;;;;;;4.63;2.00;;;;;;;14.93;75.14;101660.06;5038050;28;20063;-49
2022/07/09 05:11:10;;;;;;;7.50;2.55;;;;;;;14.96;75.04;101671.25;5038016;28;20124;-44
2022/07/09 05:13:37;;;;;;;4.82;2.13;;;;;;;14.92;75.53;101677.28;5037594;28;20032;-44
2022/07/09 05:16:04;;;;;;;6.88;2.35;;;;;;;14.91;75.59;101672.94;5028978;28;20072;-46
2022/07/09 05:18:31;;;;;;;6.50;2.30;;;;;;;14.78;76.54;101669.25;5018158;28;20081;-48
2022/07/09 05:20:57;;;;;;;7.32;2.33;;;;;;;14.71;76.97;101667.59;5020337;28;20032;-45
2022/07/09 05:23:24;;;;;;;7.75;2.58;;;;;;;14.67;77.25;101674.47;5037822;28;20029;-46
2022/07/09 05:25:50;;;;;;;5.05;2.40;;;;;;;14.70;77.42;101679.44;5038033;28;20026;-45
2022/07/09 05:28:16;;;;;;;9.73;2.78;;;;;;;14.72;77.31;101678.19;5037691;28;20057;-46
2022/07/09 05:30:43;;;;;;;4.20;2.35;;;;;;;14.67;77.39;101680.69;5037833;28;20033;-47
2022/07/09 05:33:09;;;;;;;7.38;2.55;;;;;;;14.70;77.01;101693.72;5038068;28;20061;-47
2022/07/09 05:35:35;;;;;;;7.13;2.90;;;;;;;14.63;77.62;101690.25;5037685;28;20033;-45
2022/07/09 05:38:02;;;;;;;10.13;3.58;;;;;;;14.67;77.31;101696.03;5037616;28;20489;-45
2022/07/09 05:40:28;;;;;;;7.05;4.07;;;;;;;14.57;77.52;101701.03;5037722;28;20026;-48
2022/07/09 05:42:55;;;;;;;8.88;4.97;;;;;;;14.55;77.90;101700.41;5037734;28;20114;-45
2022/07/09 05:45:21;;;;;;;8.27;6.30;;;;;;;14.61;77.88;101696.88;5019835;28;20178;-43
2022/07/09 05:47:47;;;;;;;14.15;4.03;;;;;;;14.66;76.89;101702.47;5037819;28;20026;-48
2022/07/09 05:50:13;;;;;;;8.70;3.50;;;;;;;14.62;77.21;101703.94;5037554;28;20025;-46
2022/07/09 05:52:40;;;;;;;11.73;4.13;;;;;;;14.61;77.20;101702.28;5038152;28;20116;-49
2022/07/09 05:55:06;;;;;;;9.38;2.92;;;;;;;14.59;77.24;101707.84;5037895;28;20029;-46
2022/07/09 05:57:32;;;;;;;7.63;3.13;;;;;;;14.58;77.26;101710.78;5035460;28;20033;-47
2022/07/09 05:59:58;;;;;;;5.80;2.60;;;;;;;14.55;77.29;101711.19;5036520;28;20026;-44
2022/07/09 06:02:25;;;;;;;8.43;2.65;;;;;;;14.55;77.79;101714.72;5037515;28;20145;-47
2022/07/09 06:04:51;;;;;;;6.43;2.75;;;;;;;14.48;77.52;101714.72;5035839;28;20120;-46
2022/07/09 06:07:17;;;;;;;9.02;2.53;;;;;;;14.44;77.64;101704.56;5033974;28;20478;-44
2022/07/09 06:09:43;;;;;;;9.52;3.08;;;;;;;14.36;78.21;101700.22;5033292;28;20470;-45
2022/07/09 06:12:09;;;;;;;10.95;2.92;;;;;;;14.33;78.57;101714.13;5033612;28;20128;-47
2022/07/09 06:14:35;;;;;;;12.57;2.90;;;;;;;14.43;78.42;101717.19;5032805;28;20037;-47
2022/07/09 06:17:05;;;;;;;8.90;2.58;;;;;;;14.48;77.98;101706.63;5034585;28;20021;-46
2022/07/09 06:19:36;;;;;;;6.30;2.70;;;;;;;14.46;77.71;101713.25;5033596;28;20025;-44
2022/07/09 06:22:03;;;;;;;8.55;2.58;;;;;;;14.51;77.57;101716.19;5034322;28;20489;-44
2022/07/09 06:24:29;;;;;;;6.28;2.03;;;;;;;14.31;77.54;101702.69;5031230;28;20032;-46
2022/07/09 06:26:56;;;;;;;9.25;2.53;;;;;;;14.42;77.35;101712.84;5034186;28;20489;-46
2022/07/09 06:29:22;;;;;;;9.57;2.50;;;;;;;14.37;77.48;101704.56;5032230;28;20021;-46
2022/07/09 06:31:49;;;;;;;4.30;2.10;;;;;;;14.26;78.12;101710.56;5034009;28;20059;-45
2022/07/09 06:34:15;;;;;;;4.63;2.28;;;;;;;14.29;77.58;101712.88;5032019;28;20057;-46
2022/07/09 06:36:44;;;;;;;7.15;2.55;;;;;;;14.23;77.94;101724.47;5033972;28;20359;-44
2022/07/09 06:42:03;;;;;;;3.97;2.10;;;;;;;14.10;78.18;101702.94;5034084;28;20079;-44
2022/07/09 06:44:30;;;;;;;4.38;2.10;;;;;;;14.02;78.60;101703.97;5031571;28;20030;-46
2022/07/09 06:46:56;;;;;;;4.03;1.90;;;;;;;14.02;78.44;101697.78;5033833;28;20175;-47
2022/07/09 06:49:22;;;;;;;5.47;1.95;;;;;;;14.06;78.20;101707.09;5030967;28;20036;-44
2022/07/09 06:51:48;;;;;;;8.18;1.80;;;;;;;14.04;78.49;101703.75;5033903;28;20041;-47
2022/07/09 06:54:14;;;;;;;5.20;2.22;;;;;;;14.02;78.79;101703.16;5031932;28;20029;-44
2022/07/09 06:56:41;;;;;;;7.40;2.55;;;;;;;13.98;79.27;101703.56;5033151;28;20382;-45
2022/07/09 06:59:07;;;;;;;4.82;2.50;;;;;;;14.05;79.27;101698.19;5030373;28;20153;-45
2022/07/09 07:01:33;;;;;;;6.65;2.42;;;;;;;13.95;79.52;101695.09;5033557;28;20025;-45
2022/07/09 07:03:59;;;;;;;4.25;2.20;;;;;;;13.99;79.50;101691.78;5032219;28;20474;-47
2022/07/09 07:06:25;;;;;;;3.67;2.08;;;;;;;14.04;79.29;101704.59;5033154;28;20104;-47
2022/07/09 07:08:52;;;;;;;8.27;2.67;;;;;;;13.97;79.52;101699.22;5031339;28;20025;-43
2022/07/09 07:11:18;;;;;;;3.22;1.80;;;;;;;13.95;79.54;101706.69;5032482;28;20563;-47
2022/07/09 07:13:44;;;;;;;3.65;2.45;;;;;;;14.09;79.47;101695.91;5031764;28;20033;-45
2022/07/09 07:16:10;;;;;;;5.32;2.10;;;;;;;14.13;79.57;101702.53;5031110;28;20037;-47
2022/07/09 07:18:36;;;;;;;6.32;2.60;;;;;;;14.12;79.58;101699.00;5031363;28;20478;-44
2022/07/09 07:21:03;;;;;;;3.95;2.60;;;;;;;14.10;79.68;101711.88;5052226;22;20110;-45
2022/07/09 07:23:31;;;;;;;3.60;2.30;;;;;;;14.17;79.24;101703.78;5023427;28;20091;-45
2022/07/09 07:25:58;;;;;;;3.03;2.10;;;;;;;14.22;78.66;101707.50;5012671;28;20026;-45
2022/07/09 07:28:25;;;;;;;5.18;2.40;;;;;;;14.33;77.78;101708.72;5019712;28;20030;-45
2022/07/09 07:30:51;;;;;;;4.20;2.97;;;;;;;14.41;77.46;101716.56;5031508;28;20043;-48
2022/07/09 07:33:17;;;;;;;3.58;1.92;;;;;;;14.41;78.01;101716.56;5031474;28;20017;-45
2022/07/09 07:35:47;;;;;;;6.70;2.42;;;;;;;14.43;78.27;101717.19;5032855;28;20033;-46
2022/07/09 07:38:13;;;;;;;4.28;2.22;;;;;;;14.44;78.03;101704.56;5031212;28;20025;-47
2022/07/09 07:40:40;;;;;;;5.80;2.40;;;;;;;14.56;77.71;101707.47;5032416;28;20026;-46
2022/07/09 07:43:06;;;;;;;3.80;2.05;;;;;;;14.57;77.51;101704.56;5030934;28;20104;-47
2022/07/09 07:45:32;;;;;;;4.30;2.20;;;;;;;14.54;77.54;101704.97;5032311;28;20033;-46
2022/07/09 07:47:59;;;;;;;3.83;1.80;;;;;;;14.53;77.85;101704.13;5031385;28;20037;-45
2022/07/09 07:50:25;;;;;;;4.93;2.17;;;;;;;14.62;77.81;101717.41;5032342;28;20492;-47
2022/07/09 07:52:51;;;;;;;3.25;2.30;;;;;;;14.65;77.13;101719.66;5031421;28;20151;-44
2022/07/09 07:55:17;;;;;;;3.95;1.90;;;;;;;14.58;77.39;101716.16;5031895;28;20029;-47
2022/07/09 07:57:43;;;;;;;4.53;2.00;;;;;;;14.56;77.29;101712.84;5029962;28;20142;-44
2022/07/09 08:00:10;;;;;;;4.25;2.38;;;;;;;14.48;77.58;101719.28;5031423;28;20029;-46
2022/07/09 08:02:37;;;;;;;3.40;2.05;;;;;;;14.38;77.93;101716.16;5031555;28;20029;-45
2022/07/09 08:05:04;;;;;;;3.53;1.77;;;;;;;14.26;77.92;101707.88;5030646;28;20033;-47
2022/07/09 08:07:30;;;;;;;4.65;1.77;;;;;;;14.17;78.69;101712.69;5029512;28;20025;-44
2022/07/09 08:09:57;;;;;;;5.50;2.30;;;;;;;14.17;78.85;101717.25;5032007;28;20017;-45
2022/07/09 08:12:23;;;;;;;3.25;1.52;;;;;;;13.98;78.94;101713.50;5030799;28;20065;-47
2022/07/09 08:14:49;;;;;;;5.70;2.00;;;;;;;14.03;79.01;101713.72;5032187;28;20493;-46
2022/07/09 08:17:15;;;;;;;4.57;1.92;;;;;;;14.12;79.07;101708.97;5030488;28;20121;-45
2022/07/09 08:19:41;;;;;;;4.25;2.38;;;;;;;13.95;79.55;101712.06;5012902;28;20025;-44
2022/07/09 08:22:08;;;;;;;3.72;2.15;;;;;;;13.99;78.99;101718.69;5010834;28;20503;-45
2022/07/09 08:24:34;;;;;;;4.68;2.10;;;;;;;13.99;78.87;101718.69;5021924;28;20033;-47
2022/07/09 08:27:00;;;;;;;6.55;2.38;;;;;;;13.90;79.34;101725.31;5017827;28;20167;-45
2022/07/09 08:29:26;;;;;;;2.83;2.00;;;;;;;13.90;79.36;101724.47;5029863;28;20434;-46
2022/07/09 08:31:52;;;;;;;6.75;2.63;;;;;;;13.85;79.61;101726.97;5028065;28;20044;-45
2022/07/09 08:34:19;;;;;;;4.00;2.42;;;;;;;13.71;80.23;101729.66;5031675;28;20571;-46
2022/07/09 08:36:45;;;;;;;5.20;2.88;;;;;;;13.68;80.31;101731.91;5030679;28;20125;-45
2022/07/09 08:39:12;;;;;;;5.13;2.85;;;;;;;13.75;80.39;101732.75;5030299;28;20430;-47
2022/07/09 08:41:38;;;;;;;5.28;3.15;;;;;;;13.75;80.46;101732.75;5019098;28;20112;-48
2022/07/09 08:44:05;;;;;;;5.93;2.42;;;;;;;13.73;80.13;101722.19;5015496;28;20017;-45
2022/07/09 08:46:34;;;;;;;5.10;3.00;;;;;;;13.78;80.23;101726.97;5031971;28;20542;-47
2022/07/09 08:49:03;;;;;;;7.22;3.10;;;;;;;13.75;80.82;101732.75;5030255;28;20025;-47
2022/07/09 08:51:30;;;;;;;8.00;2.72;;;;;;;13.76;80.54;101733.56;5031729;28;20328;-44
2022/07/09 08:53:57;;;;;;;9.75;3.35;;;;;;;13.77;80.39;101729.84;5029657;28;20433;-47
2022/07/09 08:56:24;;;;;;;6.47;3.10;;;;;;;13.70;80.26;101735.22;5031551;28;20079;-46
2022/07/09 08:58:50;;;;;;;6.72;2.55;;;;;;;13.69;79.76;101729.00;5030260;28;20490;-45
2022/07/09 09:01:19;;;;;;;7.10;2.28;;;;;;;13.65;79.77;101725.06;5031483;28;20065;-44
2022/07/09 09:03:46;;;;;;;4.80;2.28;;;;;;;13.60;79.83;101741.00;5029765;28;20028;-45
2022/07/09 09:06:14;;;;;;;6.28;2.40;;;;;;;13.61;80.00;101739.16;5031356;28;20030;-47
2022/07/09 09:08:42;;;;;;;6.13;2.45;;;;;;;13.61;80.15;101747.22;5028165;28;20045;-47
2022/07/09 09:11:23;;;;;;;3.67;2.42;;;;;;;13.55;80.39;101739.94;5031206;28;20032;-43
2022/07/09 09:13:50;;;;;;;5.70;2.85;;;;;;;13.54;80.73;101741.81;5029549;28;20029;-47
2022/07/09 09:16:18;;;;;;;4.13;2.20;;;;;;;13.56;80.48;101750.50;5029545;28;20021;-45
2022/07/09 09:18:47;;;;;;;2.75;2.20;;;;;;;13.55;80.15;101746.19;5013973;28;20467;-44
2022/07/09 09:21:16;;;;;;;2.38;1.52;;;;;;;13.54;80.42;101746.34;5014002;28;20512;-45
2022/07/09 09:23:47;;;;;;;4.15;2.38;;;;;;;13.53;80.35;101748.22;5029451;28;20026;-48
2022/07/09 09:26:15;;;;;;;3.95;1.83;;;;;;;13.53;80.29;101750.09;5028633;28;20061;-43
2022/07/09 09:28:52;;;;;;;1.85;1.67;;;;;;;13.50;80.61;101739.75;5031357;28;20029;-47
2022/07/09 09:31:20;;;;;;;3.13;2.25;;;;;;;13.50;80.67;101750.50;5029813;28;20041;-45
2022/07/09 09:33:46;;;;;;;5.28;2.22;;;;;;;13.51;80.91;101744.09;5031278;28;20021;-44
2022/07/09 09:36:25;;;;;;;4.07;2.03;;;;;;;13.52;80.67;101745.75;5029392;28;20163;-44
2022/07/09 09:38:51;;;;;;;2.33;1.70;;;;;;;13.51;80.48;101744.91;5031306;28;20537;-47
2022/07/09 09:41:25;;;;;;;2.05;1.48;;;;;;;13.53;80.78;101747.38;5030403;28;20475;-47
2022/07/09 09:43:56;;;;;;;2.75;1.40;;;;;;;13.47;80.79;101744.47;5034842;28;20029;-47
2022/07/09 09:46:23;;;;;;;2.63;1.58;;;;;;;13.43;80.38;101745.91;5033319;28;20026;-47
2022/07/09 09:48:50;;;;;;;3.25;1.20;;;;;;;13.51;79.89;101752.97;5034928;28;20025;-47
2022/07/09 09:51:19;;;;;;;2.63;1.38;;;;;;;13.53;79.83;101747.38;5032559;28;20048;-46
2022/07/09 09:53:47;;;;;;;2.13;1.13;;;;;;;13.40;80.21;101750.88;5034367;28;20087;-44
2022/07/09 09:56:13;;;;;;;4.90;1.27;;;;;;;13.44;80.58;101750.28;5032846;28;20036;-44
2022/07/09 09:58:40;;;;;;;1.70;1.30;;;;;;;13.31;81.05;101739.47;5032822;28;20507;-46
2022/07/09 10:01:07;;;;;;;4.18;1.20;;;;;;;13.26;81.74;101754.53;5034589;28;20080;-46
2022/07/09 10:03:34;;;;;;;3.65;1.40;;;;;;;13.22;82.06;101747.94;5033072;28;20056;-44
2022/07/09 10:06:00;;;;;;;1.15;1.00;;;;;;;13.28;82.21;101752.50;5033690;28;20076;-43
2022/07/09 10:08:27;;;;;;;1.80;0.90;;;;;;;13.24;82.40;101751.25;5034394;28;20029;-45
2022/07/09 10:10:53;;;;;;;1.65;1.10;;;;;;;13.26;82.04;101758.06;5032817;28;20029;-45
2022/07/09 10:13:23;;;;;;;1.92;1.35;;;;;;;13.16;82.25;101757.59;5032866;28;20064;-44
2022/07/09 10:15:51;;;;;;;2.08;1.23;;;;;;;13.10;82.54;101761.06;5031572;28;20648;-45
2022/07/09 10:18:18;;;;;;;1.10;0.93;;;;;;;13.16;82.59;101754.91;5031276;28;20065;-44
2022/07/09 10:20:44;;;;;;;2.08;1.08;;;;;;;13.13;82.48;101766.06;5034079;28;20037;-43
2022/07/09 10:23:26;;;;;;;1.67;1.17;;;;;;;13.17;82.89;101756.56;5032045;28;20087;-46
2022/07/09 10:25:55;;;;;;;1.20;0.82;;;;;;;13.16;82.54;101749.53;5034306;28;20393;-47
2022/07/09 10:28:24;;;;;;;2.22;1.27;;;;;;;13.18;82.04;101747.47;5032695;28;20035;-46
2022/07/09 10:30:53;;;;;;;1.88;1.30;;;;;;;13.14;82.67;101743.50;5032136;28;20559;-47
2022/07/09 10:33:23;;;;;;;1.15;1.05;;;;;;;13.28;82.38;101747.97;5031771;28;20044;-43
2022/07/09 10:35:51;;;;;;;1.05;0.93;;;;;;;13.18;82.73;101748.28;5032154;28;20087;-46
2022/07/09 10:38:19;;;;;;;1.60;1.20;;;;;;;13.18;82.80;101747.47;5032151;28;20422;-45
2022/07/09 10:40:47;;;;;;;2.33;1.10;;;;;;;13.30;82.57;101747.75;5026456;28;20053;-45
2022/07/09 10:43:14;;;;;;;1.80;1.02;;;;;;;13.21;82.52;101744.38;5012935;28;20032;-43
2022/07/09 10:45:44;;;;;;;1.45;1.02;;;;;;;13.20;82.46;101738.16;5023616;28;20025;-43
2022/07/09 10:48:13;;;;;;;1.75;1.05;;;;;;;13.22;82.49;101751.44;5021174;28;20510;-45
2022/07/09 10:50:41;;;;;;;1.00;0.90;;;;;;;13.31;82.50;101750.22;5023481;28;20041;-45
2022/07/09 10:53:08;;;;;;;1.45;1.00;;;;;;;13.33;82.72;101747.34;5032887;28;20537;-46
2022/07/09 10:55:35;;;;;;;1.40;1.00;;;;;;;13.42;82.79;101757.69;5031418;28;20029;-47
2022/07/09 10:58:07;;;;;;;1.45;0.93;;;;;;;13.48;82.68;101751.50;5030271;23;20084;-46
2022/07/09 11:00:34;;;;;;;1.88;1.08;;;;;;;13.46;82.72;101767.03;5000151;28;20022;-45
2022/07/09 11:03:05;;;;;;;2.42;1.17;;;;;;;13.48;83.52;101758.75;5005053;28;20026;-47
2022/07/09 11:05:34;;;;;;;1.92;1.30;;;;;;;13.65;83.14;101759.22;5012099;28;20032;-46
2022/07/09 11:08:01;;;;;;;2.53;1.40;;;;;;;13.58;84.28;101763.75;5011644;28;20026;-46
2022/07/09 11:10:29;;;;;;;2.10;1.40;;;;;;;13.56;84.60;101766.66;5013767;28;20069;-46
2022/07/09 11:12:58;;;;;;;2.03;1.40;;;;;;;13.62;84.30;101759.63;5011611;28;20124;-47
2022/07/09 11:15:28;;;;;;;2.42;1.33;;;;;;;13.55;84.70;101761.44;5013374;28;20049;-45
2022/07/09 11:18:01;;;;;;;1.88;1.45;;;;;;;13.58;84.92;101764.56;5011623;28;20096;-48
2022/07/09 11:20:29;;;;;;;3.10;1.40;;;;;;;13.63;84.85;101755.91;5013813;28;20044;-46
2022/07/09 11:23:00;;;;;;;3.45;1.63;;;;;;;13.62;84.92;101755.06;5013017;28;20029;-44
2022/07/09 11:25:29;;;;;;;2.72;1.90;;;;;;;13.66;84.90;101755.50;5012241;28;20034;-44